createdAt,value
2022-10-16T00:11:48.706Z,22.80
2022-10-16T00:30:29.198Z,19.50
2022-10-16T00:49:08.506Z,21.80
2022-10-16T01:07:48.646Z,24.30
2022-10-16T01:26:30.502Z,27.10
2022-10-16T01:45:07.317Z,24.00
2022-10-16T02:03:46.651Z,22.80
2022-10-16T02:22:26.077Z,25.10
2022-10-16T02:41:04.919Z,24.00
2022-10-16T02:59:46.874Z,27.30
2022-10-16T03:18:24.528Z,29.10
2022-10-16T03:37:04.353Z,23.60
2022-10-16T03:55:44.744Z,34.20
2022-10-16T04:14:26.531Z,20.90
2022-10-16T04:33:04.200Z,18.60
2022-10-16T04:51:43.290Z,25.70
2022-10-16T05:10:22.416Z,23.30
2022-10-16T05:29:03.613Z,27.00
2022-10-16T05:47:42.980Z,25.70
2022-10-16T06:06:23.988Z,24.60
2022-10-16T06:25:05.057Z,29.50
2022-10-16T06:43:47.058Z,24.30
2022-10-16T07:02:27.327Z,23.80
2022-10-16T07:21:09.887Z,25.10
2022-10-16T07:39:53.706Z,21.10
2022-10-16T07:58:36.054Z,14.50
2022-10-16T08:17:19.356Z,17.40
2022-10-16T08:36:01.675Z,18.50
2022-10-16T08:54:44.427Z,19.30
2022-10-16T09:13:28.911Z,16.50
2022-10-16T09:32:19.303Z,15.50
2022-10-16T09:51:07.209Z,13.40
2022-10-16T10:09:59.245Z,12.00
2022-10-16T10:47:41.596Z,10.40
2022-10-16T11:06:21.839Z,9.10
2022-10-16T11:25:08.271Z,8.30
2022-10-16T11:43:58.600Z,7.30
2022-10-16T12:21:24.014Z,5.70
2022-10-16T12:40:09.271Z,5.60
2022-10-16T13:17:33.233Z,6.10
2022-10-16T13:54:57.811Z,8.40
2022-10-16T14:13:33.066Z,7.10
2022-10-16T14:50:45.227Z,6.90
2022-10-16T15:09:22.585Z,7.80
2022-10-16T15:27:57.244Z,6.90
2022-10-16T15:46:18.172Z,7.80
2022-10-16T16:04:44.467Z,10.50
2022-10-16T16:23:14.971Z,7.90
2022-10-16T16:41:50.842Z,9.20
2022-10-16T17:00:31.975Z,10.90
2022-10-16T17:19:03.603Z,13.10
2022-10-16T17:56:12.504Z,12.60
2022-10-16T18:33:27.842Z,11.50
2022-10-16T18:52:05.746Z,11.60
2022-10-16T19:10:42.736Z,13.10
2022-10-16T19:29:21.004Z,13.40
2022-10-16T19:48:00.839Z,13.10
2022-10-16T20:06:38.747Z,14.10
2022-10-16T20:25:15.549Z,13.00
2022-10-16T20:43:51.835Z,10.00
2022-10-16T21:02:30.541Z,15.20
2022-10-16T21:21:09.139Z,16.30
2022-10-16T21:39:50.338Z,12.60
2022-10-16T21:58:30.198Z,12.10
2022-10-16T22:17:09.207Z,12.10
2022-10-16T22:35:48.174Z,13.50
2022-10-16T22:54:26.383Z,15.60
2022-10-16T23:13:06.794Z,16.60
2022-10-16T23:31:46.843Z,12.90
2022-10-16T23:50:26.429Z,16.90
